createdAt,value
2019-03-23T00:01:33.740Z,74.49
2019-03-23T00:04:40.567Z,75.06
2019-03-23T00:07:47.689Z,74.97
2019-03-23T00:10:54.473Z,75.01
2019-03-23T00:14:01.307Z,75.44
2019-03-23T00:17:08.246Z,75.37
2019-03-23T00:20:15.132Z,75.46
2019-03-23T00:23:22.044Z,75.54
2019-03-23T00:26:28.941Z,76.19
2019-03-23T00:29:36.929Z,75.77
2019-03-23T00:32:43.800Z,76.49
2019-03-23T00:35:50.647Z,76.60
2019-03-23T00:38:57.727Z,76.80
2019-03-23T00:42:04.673Z,76.88
2019-03-23T00:45:11.650Z,77.73
2019-03-23T00:48:18.458Z,78.17
2019-03-23T00:51:25.420Z,78.29
2019-03-23T00:54:33.451Z,77.11
2019-03-23T00:57:40.771Z,78.77
2019-03-23T01:00:48.146Z,78.74
2019-03-23T01:03:55.036Z,78.06
2019-03-23T01:07:02.036Z,79.18
2019-03-23T01:10:10.193Z,79.47
2019-03-23T01:13:17.053Z,79.95
2019-03-23T01:16:24.208Z,79.76
2019-03-23T01:19:31.098Z,79.41
2019-03-23T01:22:38.016Z,79.47
2019-03-23T01:25:45.956Z,79.79
2019-03-23T01:28:53.077Z,79.69
2019-03-23T01:32:00.014Z,79.83
2019-03-23T01:35:07.806Z,79.83
2019-03-23T01:38:14.573Z,80.05
2019-03-23T01:41:22.344Z,79.63
2019-03-23T01:44:30.123Z,79.91
2019-03-23T01:47:37.127Z,80.35
2019-03-23T01:50:43.992Z,80.66
2019-03-23T01:53:50.966Z,80.58
2019-03-23T01:56:58.110Z,80.89
2019-03-23T02:00:06.306Z,80.72
2019-03-23T02:03:13.309Z,81.03
2019-03-23T02:06:20.438Z,80.63
2019-03-23T02:09:27.329Z,81.20
2019-03-23T02:12:34.710Z,80.67
2019-03-23T02:15:41.487Z,79.94
2019-03-23T02:18:48.416Z,81.35
2019-03-23T02:21:55.326Z,80.96
2019-03-23T02:25:02.657Z,81.69
2019-03-23T02:28:09.505Z,81.48
2019-03-23T02:31:16.461Z,81.59
2019-03-23T02:34:23.358Z,81.03
2019-03-23T02:37:30.262Z,81.29
2019-03-23T02:40:37.140Z,82.38
2019-03-23T02:43:44.111Z,81.90
2019-03-23T02:46:51.137Z,82.53
2019-03-23T02:49:58.437Z,82.51
2019-03-23T02:53:05.302Z,82.12
2019-03-23T02:56:12.300Z,81.65
2019-03-23T02:59:19.323Z,81.80
2019-03-23T03:02:26.646Z,81.82
2019-03-23T03:05:34.757Z,81.19
2019-03-23T03:08:41.751Z,81.39
2019-03-23T03:11:48.598Z,81.98
2019-03-23T03:14:55.615Z,81.17
2019-03-23T03:18:02.497Z,81.55
2019-03-23T03:21:09.438Z,81.55
2019-03-23T03:24:16.393Z,81.81
2019-03-23T03:27:23.383Z,81.58
2019-03-23T03:30:30.260Z,81.25
2019-03-23T03:33:37.073Z,81.46
2019-03-23T03:36:44.085Z,81.63
2019-03-23T03:39:51.114Z,81.63
2019-03-23T03:42:58.283Z,81.18
2019-03-23T03:46:05.285Z,81.77
2019-03-23T03:49:13.119Z,81.71
2019-03-23T03:52:21.022Z,81.66
2019-03-23T03:55:27.825Z,81.79
2019-03-23T03:58:34.899Z,81.07
2019-03-23T04:01:41.745Z,82.11
2019-03-23T04:04:49.313Z,82.05
2019-03-23T04:08:09.889Z,81.94
2019-03-23T04:11:04.824Z,82.15
2019-03-23T04:14:11.817Z,81.97
2019-03-23T04:17:19.094Z,81.92
2019-03-23T04:20:25.955Z,81.94
2019-03-23T04:23:32.911Z,81.93
2019-03-23T04:26:39.875Z,81.90
2019-03-23T04:29:46.795Z,81.70
2019-03-23T04:32:53.647Z,81.70
2019-03-23T04:36:00.853Z,81.92
2019-03-23T04:39:08.295Z,81.80
2019-03-23T04:42:15.336Z,81.78
2019-03-23T04:45:22.124Z,81.93
2019-03-23T04:48:29.049Z,81.46
2019-03-23T04:51:36.025Z,81.63
2019-03-23T04:54:43.178Z,81.27
2019-03-23T04:57:50.086Z,81.13
2019-03-23T05:00:57.487Z,81.20
2019-03-23T05:04:04.475Z,81.25
2019-03-23T05:07:12.619Z,80.83
2019-03-23T05:10:19.419Z,81.26
2019-03-23T05:13:26.341Z,81.60
2019-03-23T05:16:33.261Z,81.33
2019-03-23T05:19:40.398Z,81.61
2019-03-23T05:22:47.331Z,80.95
2019-03-23T05:25:54.245Z,81.12
2019-03-23T05:29:01.080Z,81.19
2019-03-23T05:32:08.413Z,80.85
2019-03-23T05:35:15.277Z,80.73
2019-03-23T05:38:22.145Z,81.18
2019-03-23T05:41:30.884Z,81.13
2019-03-23T05:44:40.075Z,80.80
2019-03-23T05:47:46.965Z,80.72
2019-03-23T05:50:54.005Z,80.86
2019-03-23T05:54:01.027Z,80.65
2019-03-23T05:57:08.786Z,80.52
2019-03-23T06:00:18.541Z,80.71
2019-03-23T06:03:25.343Z,80.68
2019-03-23T06:06:32.297Z,80.55
2019-03-23T06:09:40.810Z,80.49
2019-03-23T06:12:48.097Z,80.56
2019-03-23T06:15:55.299Z,80.30
2019-03-23T06:19:02.371Z,80.17
2019-03-23T06:22:10.102Z,80.27
2019-03-23T06:25:16.940Z,79.78
2019-03-23T06:28:23.960Z,80.23
2019-03-23T06:31:31.156Z,80.07
2019-03-23T06:34:38.168Z,80.18
2019-03-23T06:37:46.220Z,79.91
2019-03-23T06:40:55.138Z,80.04
2019-03-23T06:44:02.180Z,80.02
2019-03-23T06:47:09.980Z,79.92
2019-03-23T06:50:16.864Z,79.80
2019-03-23T06:53:23.819Z,80.10
2019-03-23T06:56:30.806Z,79.82
2019-03-23T06:59:37.795Z,79.91
2019-03-23T07:02:44.668Z,79.76
2019-03-23T07:05:51.519Z,79.37
2019-03-23T07:09:00.562Z,79.42
2019-03-23T07:12:08.003Z,79.14
2019-03-23T07:15:20.276Z,79.69
2019-03-23T07:18:24.010Z,79.77
2019-03-23T07:21:34.418Z,79.48
2019-03-23T07:24:45.257Z,79.79
2019-03-23T07:27:52.191Z,80.04
2019-03-23T07:30:59.238Z,79.95
2019-03-23T07:34:06.329Z,79.26
2019-03-23T07:37:13.506Z,79.50
2019-03-23T07:40:22.055Z,79.64
2019-03-23T07:43:29.035Z,79.10
2019-03-23T07:46:36.061Z,78.82
2019-03-23T07:49:43.088Z,79.28
2019-03-23T07:52:50.102Z,78.94
2019-03-23T07:55:58.757Z,78.95
2019-03-23T07:59:07.552Z,79.53
2019-03-23T08:02:14.754Z,78.94
2019-03-23T08:05:23.162Z,78.49
2019-03-23T08:08:30.238Z,78.82
2019-03-23T08:11:37.282Z,78.97
2019-03-23T08:14:45.454Z,79.11
2019-03-23T08:17:52.266Z,79.21
2019-03-23T08:21:00.118Z,78.85
2019-03-23T08:24:07.296Z,79.00
2019-03-23T08:27:18.846Z,78.77
2019-03-23T08:30:27.239Z,78.55
2019-03-23T08:33:34.888Z,78.16
2019-03-23T08:36:41.874Z,78.71
2019-03-23T08:39:51.451Z,78.44
2019-03-23T08:42:58.683Z,77.85
2019-03-23T08:46:10.707Z,77.55
2019-03-23T08:49:19.134Z,77.73
2019-03-23T08:52:26.250Z,77.71
2019-03-23T08:55:36.088Z,77.49
2019-03-23T08:58:41.074Z,77.41
2019-03-23T09:01:48.133Z,76.85
2019-03-23T09:04:55.156Z,76.38
2019-03-23T09:08:03.434Z,75.91
2019-03-23T09:11:20.159Z,76.23
2019-03-23T09:14:19.188Z,76.25
2019-03-23T09:17:26.334Z,76.04
2019-03-23T09:20:33.209Z,75.77
2019-03-23T09:23:40.357Z,74.94
2019-03-23T09:26:47.380Z,74.97
2019-03-23T09:29:54.562Z,74.00
2019-03-23T09:33:01.513Z,72.30
2019-03-23T09:36:08.378Z,70.95
2019-03-23T09:39:15.345Z,69.91
2019-03-23T09:42:22.463Z,68.65
2019-03-23T09:45:29.371Z,69.41
2019-03-23T09:48:37.576Z,69.88
2019-03-23T09:51:45.476Z,70.53
2019-03-23T09:54:52.777Z,69.85
2019-03-23T09:57:59.651Z,68.82
2019-03-23T10:01:07.686Z,66.97
2019-03-23T10:04:14.630Z,65.74
2019-03-23T10:07:21.537Z,63.51
2019-03-23T10:10:28.422Z,59.17
2019-03-23T10:13:36.162Z,55.22
2019-03-23T10:16:43.124Z,54.56
2019-03-23T10:19:51.657Z,53.81
2019-03-23T10:22:58.479Z,51.89
2019-03-23T10:26:06.565Z,50.97
2019-03-23T10:29:14.656Z,49.29
2019-03-23T10:32:21.999Z,49.18
2019-03-23T10:35:29.397Z,49.11
2019-03-23T10:38:42.367Z,49.90
2019-03-23T10:41:52.022Z,50.09
2019-03-23T10:44:59.308Z,48.61
2019-03-23T10:48:06.264Z,47.54
2019-03-23T10:51:14.786Z,47.21
2019-03-23T10:54:21.761Z,45.54
2019-03-23T10:57:29.375Z,43.96
2019-03-23T11:00:36.605Z,42.40
2019-03-23T11:03:43.485Z,43.16
2019-03-23T11:06:50.978Z,42.71
2019-03-23T11:10:00.717Z,42.48
2019-03-23T11:13:09.185Z,40.51
2019-03-23T11:16:16.246Z,39.13
2019-03-23T11:19:23.189Z,39.24
2019-03-23T11:22:32.283Z,37.65
2019-03-23T11:25:39.152Z,38.27
2019-03-23T11:28:46.468Z,38.08
2019-03-23T11:31:53.426Z,37.70
2019-03-23T11:35:00.605Z,34.41
2019-03-23T11:38:07.454Z,34.41
2019-03-23T11:41:14.387Z,35.59
2019-03-23T11:44:21.517Z,34.51
2019-03-23T11:47:28.548Z,34.09
2019-03-23T11:50:35.539Z,34.38
2019-03-23T11:53:42.665Z,34.87
2019-03-23T11:56:49.761Z,33.63
2019-03-23T11:59:56.755Z,33.73
2019-03-23T12:03:03.631Z,34.30
2019-03-23T12:06:11.474Z,32.70
2019-03-23T12:09:18.516Z,34.44
2019-03-23T12:12:25.402Z,33.74
2019-03-23T12:15:32.459Z,32.35
2019-03-23T12:18:39.575Z,33.24
2019-03-23T12:21:50.752Z,31.71
2019-03-23T12:24:57.645Z,31.23
2019-03-23T12:28:04.538Z,32.50
2019-03-23T12:31:11.595Z,31.48
2019-03-23T12:34:18.601Z,32.18
2019-03-23T12:37:26.013Z,31.66
2019-03-23T12:40:36.391Z,32.32
2019-03-23T12:43:43.228Z,30.82
2019-03-23T12:46:50.324Z,30.86
2019-03-23T12:49:57.320Z,29.33
2019-03-23T12:53:04.191Z,29.94
2019-03-23T12:56:12.499Z,30.94
2019-03-23T12:59:19.527Z,30.41
2019-03-23T13:02:26.638Z,29.82
2019-03-23T13:05:33.661Z,30.83
2019-03-23T13:08:43.591Z,28.56
2019-03-23T13:11:52.102Z,29.80
2019-03-23T13:14:59.123Z,29.32
2019-03-23T13:18:06.033Z,31.17
2019-03-23T13:21:13.125Z,32.62
2019-03-23T13:24:20.116Z,32.62
2019-03-23T13:27:28.540Z,31.94
2019-03-23T13:30:35.556Z,31.99
2019-03-23T13:33:50.387Z,32.42
2019-03-23T13:37:00.365Z,32.47
2019-03-23T13:40:13.273Z,31.92
2019-03-23T13:43:20.192Z,32.38
2019-03-23T13:46:27.113Z,32.76
2019-03-23T13:49:34.142Z,32.94
2019-03-23T13:52:41.162Z,32.94
2019-03-23T13:55:48.073Z,33.32
2019-03-23T13:58:55.136Z,33.23
2019-03-23T14:02:02.212Z,33.23
2019-03-23T14:05:16.039Z,32.89
2019-03-23T14:08:18.129Z,32.36
2019-03-23T14:11:25.098Z,32.50
2019-03-23T14:14:33.403Z,31.68
2019-03-23T14:17:40.465Z,31.92
2019-03-23T14:20:47.453Z,32.46
2019-03-23T14:23:55.463Z,32.14
2019-03-23T14:27:02.359Z,33.04
2019-03-23T14:30:09.535Z,32.66
2019-03-23T14:33:16.421Z,31.77
2019-03-23T14:36:23.454Z,32.12
2019-03-23T14:39:31.246Z,32.13
2019-03-23T14:42:38.569Z,32.54
2019-03-23T14:45:46.249Z,33.12
2019-03-23T14:48:53.715Z,32.63
2019-03-23T14:52:01.055Z,32.63
2019-03-23T14:55:08.264Z,33.67
2019-03-23T14:58:15.068Z,33.67
2019-03-23T15:01:22.053Z,33.28
2019-03-23T15:04:28.980Z,33.54
2019-03-23T15:07:37.041Z,33.73
2019-03-23T15:10:43.973Z,33.70
2019-03-23T15:13:55.024Z,33.52
2019-03-23T15:17:04.496Z,34.00
2019-03-23T15:20:13.023Z,34.40
2019-03-23T15:23:19.929Z,34.67
2019-03-23T15:26:26.948Z,34.28
2019-03-23T15:29:33.939Z,34.74
2019-03-23T15:32:41.189Z,34.70
2019-03-23T15:35:48.978Z,34.74
2019-03-23T15:38:59.511Z,34.54
2019-03-23T15:42:06.515Z,34.54
2019-03-23T15:45:14.470Z,35.61
2019-03-23T15:48:23.148Z,35.02
2019-03-23T15:51:30.303Z,35.36
2019-03-23T15:54:37.675Z,35.26
2019-03-23T15:57:44.725Z,35.84
2019-03-23T16:00:51.597Z,36.07
2019-03-23T16:04:02.307Z,36.73
2019-03-23T16:07:12.632Z,37.22
2019-03-23T16:10:19.848Z,37.31
2019-03-23T16:13:27.321Z,38.03
2019-03-23T16:16:34.267Z,38.59
2019-03-23T16:19:41.386Z,39.36
2019-03-23T16:22:48.385Z,39.64
2019-03-23T16:25:55.257Z,39.91
2019-03-23T16:29:02.210Z,40.14
2019-03-23T16:32:12.229Z,40.59
2019-03-23T16:35:19.579Z,41.11
2019-03-23T16:38:29.086Z,41.62
2019-03-23T16:41:36.529Z,42.07
2019-03-23T16:44:44.529Z,41.90
2019-03-23T16:47:56.567Z,42.03
2019-03-23T16:51:05.133Z,42.41
2019-03-23T16:54:12.218Z,42.51
2019-03-23T16:57:19.333Z,42.46
2019-03-23T17:00:37.161Z,43.11
2019-03-23T17:03:44.244Z,42.83
2019-03-23T17:06:51.661Z,43.10
2019-03-23T17:09:58.861Z,43.69
2019-03-23T17:13:06.015Z,43.80
2019-03-23T17:16:13.492Z,43.70
2019-03-23T17:19:20.662Z,43.92
2019-03-23T17:22:28.008Z,43.98
2019-03-23T17:25:37.644Z,44.06
2019-03-23T17:28:48.930Z,44.29
2019-03-23T17:31:54.824Z,44.54
2019-03-23T17:35:02.013Z,44.53
2019-03-23T17:38:12.570Z,44.72
2019-03-23T17:41:19.761Z,44.91
2019-03-23T17:44:26.635Z,45.29
2019-03-23T17:47:33.674Z,45.22
2019-03-23T17:50:42.509Z,45.20
2019-03-23T17:53:58.235Z,45.11
2019-03-23T17:56:58.211Z,45.64
2019-03-23T18:00:54.159Z,45.56
2019-03-23T18:04:09.607Z,45.95
2019-03-23T18:07:17.363Z,45.97
2019-03-23T18:10:24.594Z,46.08
2019-03-23T18:13:31.790Z,46.56
2019-03-23T18:16:39.238Z,45.84
2019-03-23T18:19:46.325Z,45.99
2019-03-23T18:22:53.176Z,46.01
2019-03-23T18:26:00.458Z,46.07
2019-03-23T18:29:07.776Z,46.58
2019-03-23T18:32:15.048Z,46.60
2019-03-23T18:35:22.148Z,46.63
2019-03-23T18:38:30.497Z,46.75
2019-03-23T18:41:37.447Z,47.47
2019-03-23T18:44:44.395Z,46.99
2019-03-23T18:47:51.336Z,47.04
2019-03-23T18:50:58.598Z,47.11
2019-03-23T18:54:06.082Z,47.35
2019-03-23T18:57:13.085Z,47.32
2019-03-23T19:00:33.122Z,47.77
2019-03-23T19:03:41.826Z,47.14
2019-03-23T19:06:50.994Z,47.41
2019-03-23T19:09:57.990Z,47.73
2019-03-23T19:13:05.829Z,48.06
2019-03-23T19:16:14.750Z,48.29
2019-03-23T19:19:25.458Z,48.31
2019-03-23T19:22:32.322Z,48.44
2019-03-23T19:25:40.349Z,48.58
2019-03-23T19:28:47.375Z,48.86
2019-03-23T19:31:56.229Z,49.12
2019-03-23T19:35:13.454Z,49.39
2019-03-23T19:38:22.360Z,49.60
2019-03-23T19:41:30.893Z,49.49
2019-03-23T19:44:40.252Z,49.75
2019-03-23T19:47:47.243Z,50.04
2019-03-23T19:50:54.255Z,50.21
2019-03-23T19:54:01.427Z,50.55
2019-03-23T19:57:08.430Z,50.73
2019-03-23T20:00:18.679Z,51.04
2019-03-23T20:03:25.586Z,51.04
2019-03-23T20:06:32.664Z,51.37
2019-03-23T20:09:41.082Z,51.41
2019-03-23T20:12:49.648Z,51.58
2019-03-23T20:15:56.568Z,51.61
2019-03-23T20:19:04.031Z,52.12
2019-03-23T20:22:11.125Z,52.42
2019-03-23T20:25:18.091Z,52.33
2019-03-23T20:28:25.163Z,52.35
2019-03-23T20:31:33.948Z,52.71
2019-03-23T20:34:43.290Z,52.83
2019-03-23T20:37:50.204Z,53.08
2019-03-23T20:40:57.226Z,53.13
2019-03-23T20:44:09.529Z,53.22
2019-03-23T20:47:13.686Z,53.99
2019-03-23T20:50:20.717Z,53.99
2019-03-23T20:53:27.676Z,53.81
2019-03-23T20:56:36.181Z,54.05
2019-03-23T20:59:43.178Z,54.16
2019-03-23T21:02:50.115Z,54.07
2019-03-23T21:05:58.428Z,54.22
2019-03-23T21:09:07.574Z,54.30
2019-03-23T21:12:14.642Z,54.36
2019-03-23T21:15:23.772Z,54.55
2019-03-23T21:18:32.918Z,54.64
2019-03-23T21:21:39.511Z,54.75
2019-03-23T21:24:52.045Z,54.95
2019-03-23T21:27:58.979Z,55.01
2019-03-23T21:31:08.671Z,54.90
2019-03-23T21:34:19.350Z,55.15
2019-03-23T21:37:29.664Z,55.13
2019-03-23T21:40:45.535Z,55.01
2019-03-23T21:43:55.361Z,54.60
2019-03-23T21:47:02.812Z,54.57
2019-03-23T21:50:11.500Z,54.64
2019-03-23T21:53:18.462Z,55.03
2019-03-23T21:56:25.286Z,54.87
2019-03-23T21:59:32.497Z,54.97
2019-03-23T22:02:39.382Z,54.84
2019-03-23T22:05:46.378Z,55.15
2019-03-23T22:08:53.456Z,55.28
2019-03-23T22:12:00.595Z,55.35
2019-03-23T22:15:08.707Z,55.46
2019-03-23T22:18:15.655Z,55.65
2019-03-23T22:21:26.203Z,55.72
2019-03-23T22:24:36.258Z,55.92
2019-03-23T22:27:49.993Z,56.26
2019-03-23T22:30:57.505Z,55.87
2019-03-23T22:34:06.125Z,56.05
2019-03-23T22:37:13.433Z,56.10
2019-03-23T22:40:21.430Z,56.03
2019-03-23T22:43:28.334Z,55.92
2019-03-23T22:46:35.632Z,55.74
2019-03-23T22:49:43.263Z,55.39
2019-03-23T22:52:50.106Z,54.98
2019-03-23T22:55:57.694Z,55.07
2019-03-23T22:59:04.620Z,55.36
2019-03-23T23:02:14.188Z,54.88
2019-03-23T23:05:23.873Z,55.60
2019-03-23T23:08:33.774Z,55.66
2019-03-23T23:11:40.870Z,55.42
2019-03-23T23:14:49.464Z,56.80
2019-03-23T23:17:56.399Z,55.55
2019-03-23T23:21:03.304Z,55.65
2019-03-23T23:24:10.250Z,56.12
2019-03-23T23:27:17.245Z,56.03
2019-03-23T23:30:24.194Z,56.00
2019-03-23T23:33:31.415Z,56.11
2019-03-23T23:36:38.352Z,56.06
2019-03-23T23:39:45.374Z,56.65
2019-03-23T23:42:54.534Z,56.08
2019-03-23T23:46:01.400Z,56.34
2019-03-23T23:49:08.251Z,56.54
2019-03-23T23:52:16.182Z,56.65
2019-03-23T23:55:23.048Z,56.83
2019-03-23T23:58:30.037Z,56.78
